Time;durP1;ratioP1;P1;durP2;ratioP2;P2;SDS_P1;SDS_P2;PMS_P1;PMS_P2;Temp;Humidity;BMP_temperature;BMP_pressure;BME280_temperature;BME280_humidity;BME280_pressure;Samples;Min_cycle;Max_cycle;Signal;HPM_P1;HPM_P2
2022/08/16 00:01:21;;;;;;;9.45;8.40;;;;;;;19.80;83.88;99961.25;5070823;28;20065;-81
2022/08/16 00:03:48;;;;;;;9.50;8.45;;;;;;;19.78;84.05;99966.81;5064167;28;20041;-81
2022/08/16 00:06:14;;;;;;;9.95;8.88;;;;;;;19.75;84.32;99966.44;5064660;28;20053;-83
2022/08/16 00:08:41;;;;;;;9.77;8.52;;;;;;;19.72;84.53;99966.91;5061601;28;20107;-82
2022/08/16 00:11:11;;;;;;;10.13;8.23;;;;;;;19.75;84.33;99969.09;5075487;28;20076;-79
2022/08/16 00:13:38;;;;;;;9.20;7.93;;;;;;;19.66;84.60;99973.16;5081201;28;20552;-80
2022/08/16 00:16:05;;;;;;;10.63;8.20;;;;;;;19.65;84.49;99960.91;5080366;28;20055;-79
2022/08/16 00:18:33;;;;;;;10.20;7.70;;;;;;;19.69;84.55;99970.84;5083439;28;20056;-79
2022/08/16 00:21:00;;;;;;;10.85;8.43;;;;;;;19.70;84.42;99969.00;5085088;28;20319;-80
2022/08/16 00:23:27;;;;;;;9.18;8.07;;;;;;;19.68;84.50;99966.56;5085697;28;20048;-79
2022/08/16 00:25:53;;;;;;;10.45;8.60;;;;;;;19.63;84.69;99970.94;5085791;28;20049;-79
2022/08/16 00:28:20;;;;;;;12.40;9.55;;;;;;;19.63;84.76;99986.88;5071141;28;20045;-80
2022/08/16 00:30:47;;;;;;;11.73;7.93;;;;;;;19.55;84.80;99982.72;5066650;28;20065;-81
2022/08/16 00:33:13;;;;;;;10.38;8.10;;;;;;;19.50;85.04;99982.56;5078418;28;20043;-81
2022/08/16 00:35:41;;;;;;;12.63;8.32;;;;;;;19.44;85.41;99986.13;5078832;28;20055;-80
2022/08/16 00:38:09;;;;;;;10.18;8.10;;;;;;;19.40;85.52;99980.47;5070800;28;20135;-79
2022/08/16 00:40:39;;;;;;;11.90;8.32;;;;;;;19.41;85.55;99979.44;5058895;28;20140;-80
2022/08/16 00:43:08;;;;;;;13.00;8.43;;;;;;;19.35;85.67;99980.38;5040022;28;20050;-80
2022/08/16 00:45:46;;;;;;;11.00;8.32;;;;;;;19.35;85.83;99976.91;5045646;28;20112;-80
2022/08/16 00:48:15;;;;;;;10.18;8.50;;;;;;;19.33;85.92;99985.09;5077355;28;20140;-81
2022/08/16 00:50:44;;;;;;;13.50;8.00;;;;;;;19.25;86.49;99979.31;5077138;28;20113;-81
2022/08/16 00:53:14;;;;;;;11.85;8.75;;;;;;;19.25;86.62;99992.59;5077379;28;20052;-79
2022/08/16 00:55:46;;;;;;;10.88;8.40;;;;;;;19.22;86.92;99988.53;5073915;28;20045;-80
2022/08/16 00:58:15;;;;;;;10.15;8.75;;;;;;;19.24;86.84;99997.06;5059096;28;20091;-79
2022/08/16 01:00:42;;;;;;;9.75;8.65;;;;;;;19.26;87.00;99995.00;5065018;28;20052;-80
2022/08/16 01:03:13;;;;;;;10.25;8.55;;;;;;;19.19;87.10;99994.28;5079001;28;20480;-80
2022/08/16 01:05:41;;;;;;;11.10;9.38;;;;;;;19.21;86.90;99997.53;5074945;28;20128;-80
2022/08/16 01:08:11;;;;;;;10.57;8.63;;;;;;;19.18;86.93;99997.97;5060508;28;20060;-80
2022/08/16 01:10:38;;;;;;;11.52;9.13;;;;;;;19.12;87.35;100001.53;5061745;28;20053;-78
2022/08/16 01:13:08;;;;;;;12.40;9.18;;;;;;;19.00;87.82;100006.00;5062453;28;20044;-80
2022/08/16 01:15:37;;;;;;;12.32;9.43;;;;;;;18.96;87.95;99999.53;5063572;28;20080;-79
2022/08/16 01:18:06;;;;;;;10.60;8.95;;;;;;;18.94;88.02;99999.75;5080059;28;20044;-80
2022/08/16 01:20:40;;;;;;;15.60;9.63;;;;;;;18.89;88.24;100005.75;5079776;28;20503;-80
2022/08/16 01:23:16;;;;;;;12.82;9.75;;;;;;;18.87;88.32;99991.09;5080186;28;20048;-80
2022/08/16 01:25:47;;;;;;;11.75;9.45;;;;;;;18.78;88.53;99993.25;5079491;28;20079;-79
2022/08/16 01:28:18;;;;;;;10.20;9.07;;;;;;;18.72;88.82;100010.06;5079737;28;20485;-79
2022/08/16 01:30:48;;;;;;;14.13;10.15;;;;;;;18.68;88.95;99998.28;5080588;28;20040;-81
2022/08/16 01:33:15;;;;;;;12.27;9.75;;;;;;;18.62;89.16;100001.81;5069155;28;20064;-80
2022/08/16 01:35:47;;;;;;;11.38;9.88;;;;;;;18.55;89.44;99993.13;5060018;28;20550;-80
2022/08/16 01:38:19;;;;;;;11.23;9.52;;;;;;;18.56;89.52;99994.75;5060208;28;20052;-81
2022/08/16 01:40:47;;;;;;;12.38;9.00;;;;;;;18.67;89.56;99996.66;5060513;28;20052;-81
2022/08/16 01:43:14;;;;;;;11.75;9.70;;;;;;;18.72;89.13;99994.16;5071452;28;20055;-81
2022/08/16 01:45:41;;;;;;;10.57;9.48;;;;;;;18.74;89.22;99989.44;5076791;28;20037;-82
2022/08/16 01:48:08;;;;;;;11.18;10.07;;;;;;;18.75;89.07;99991.06;5059922;28;20114;-82
2022/08/16 01:50:36;;;;;;;12.88;9.63;;;;;;;18.77;88.96;99989.00;5058638;28;20558;-81
2022/08/16 01:53:03;;;;;;;11.32;9.65;;;;;;;18.78;88.88;99987.16;5057317;28;20076;-79
2022/08/16 01:55:30;;;;;;;10.48;9.35;;;;;;;18.73;89.32;99987.00;5059443;28;20114;-80
2022/08/16 01:57:58;;;;;;;10.55;9.35;;;;;;;18.71;89.27;99987.25;5058562;28;20085;-81
2022/08/16 02:00:26;;;;;;;11.23;9.60;;;;;;;18.71;89.12;99978.47;5060659;28;20100;-81
2022/08/16 02:02:52;;;;;;;13.32;9.50;;;;;;;18.73;89.05;99982.53;5079317;28;20076;-81
2022/08/16 02:05:20;;;;;;;12.05;9.95;;;;;;;18.68;89.16;99987.69;5078910;28;20079;-81
2022/08/16 02:07:46;;;;;;;13.23;10.05;;;;;;;18.67;89.32;99980.78;5080021;28;20173;-82
2022/08/16 02:10:15;;;;;;;10.98;9.75;;;;;;;18.63;89.36;99984.09;5078439;28;20084;-81
2022/08/16 02:12:42;;;;;;;13.63;10.20;;;;;;;18.50;89.67;99979.72;5059243;28;20500;-79
2022/08/16 02:15:11;;;;;;;11.52;10.23;;;;;;;18.57;89.35;99985.75;5059090;28;20135;-81
2022/08/16 02:17:37;;;;;;;11.95;10.63;;;;;;;18.52;89.45;99983.78;5059130;28;20057;-81
2022/08/16 02:20:05;;;;;;;12.43;10.30;;;;;;;18.53;89.72;99987.22;5059509;28;20049;-80
2022/08/16 02:22:32;;;;;;;15.40;11.32;;;;;;;18.48;89.72;99987.91;5076072;28;20053;-80
2022/08/16 02:24:58;;;;;;;12.90;11.48;;;;;;;18.43;90.00;99989.63;5078460;28;20044;-80
2022/08/16 02:27:25;;;;;;;14.60;12.05;;;;;;;18.36;90.20;99988.91;5077274;28;20139;-80
2022/08/16 02:29:52;;;;;;;15.55;11.98;;;;;;;18.34;90.41;99980.38;5077280;28;20053;-80
2022/08/16 02:32:20;;;;;;;15.77;12.32;;;;;;;18.34;90.46;99980.38;5077156;28;20116;-81
2022/08/16 02:34:46;;;;;;;14.93;11.98;;;;;;;18.32;90.57;99977.13;5079097;28;20052;-79
2022/08/16 02:37:13;;;;;;;13.65;11.60;;;;;;;18.34;90.47;99972.41;5077913;28;20086;-80
2022/08/16 02:39:40;;;;;;;13.77;12.13;;;;;;;18.31;90.48;99976.31;5077505;28;20117;-80
2022/08/16 02:42:06;;;;;;;16.45;12.50;;;;;;;18.32;90.51;99977.13;5069722;28;20346;-81
2022/08/16 02:44:33;;;;;;;16.10;12.35;;;;;;;18.30;90.44;99973.88;5058032;28;20080;-80
2022/08/16 02:47:00;;;;;;;13.98;12.43;;;;;;;18.23;90.75;99969.47;5076446;28;20060;-80
2022/08/16 02:49:28;;;;;;;15.38;12.23;;;;;;;18.19;90.80;99973.59;5067285;28;20052;-80
2022/08/16 02:51:54;;;;;;;14.98;12.45;;;;;;;18.12;91.30;99962.28;5065999;28;20094;-80
2022/08/16 02:54:21;;;;;;;13.70;12.25;;;;;;;18.15;91.39;99967.13;5064969;28;20045;-80
2022/08/16 02:56:48;;;;;;;14.75;12.73;;;;;;;18.13;91.34;99971.81;5065836;28;20053;-80
2022/08/16 02:59:14;;;;;;;16.42;13.45;;;;;;;18.09;91.43;99962.72;5063399;28;20053;-81
2022/08/16 03:01:41;;;;;;;13.90;12.50;;;;;;;18.07;91.83;99961.31;5075649;28;20493;-80
2022/08/16 03:04:09;;;;;;;16.85;13.52;;;;;;;18.07;91.34;99963.97;5082265;28;20052;-82
2022/08/16 03:06:37;;;;;;;14.63;13.00;;;;;;;18.03;91.75;99958.28;5081050;28;20040;-81
2022/08/16 03:09:04;;;;;;;17.98;13.23;;;;;;;17.98;91.81;99955.50;5081218;28;20055;-81
2022/08/16 03:11:31;;;;;;;16.27;13.45;;;;;;;17.97;91.56;99953.88;5082464;28;20060;-82
2022/08/16 03:13:58;;;;;;;18.33;13.90;;;;;;;17.94;92.17;99951.69;5082392;28;20462;-80
2022/08/16 03:16:26;;;;;;;16.50;13.68;;;;;;;17.93;92.16;99949.28;5081044;28;20056;-81
2022/08/16 03:18:53;;;;;;;19.98;14.00;;;;;;;17.89;92.15;99951.53;5081528;28;20048;-82
2022/08/16 03:21:20;;;;;;;18.58;13.98;;;;;;;17.85;92.44;99961.75;5081436;28;20048;-81
2022/08/16 03:23:48;;;;;;;15.32;13.65;;;;;;;17.84;92.66;99962.78;5082456;28;20074;-81
2022/08/16 03:26:15;;;;;;;15.93;13.43;;;;;;;17.86;92.56;99962.56;5081788;28;20104;-80
2022/08/16 03:28:42;;;;;;;15.55;13.90;;;;;;;17.88;91.96;99958.69;5081752;28;20052;-81
2022/08/16 03:31:09;;;;;;;22.27;14.68;;;;;;;17.84;92.37;99970.72;5075160;28;20076;-79
2022/08/16 03:33:36;;;;;;;16.77;13.93;;;;;;;17.81;92.52;99965.06;5064716;28;20075;-80
2022/08/16 03:36:04;;;;;;;15.60;13.65;;;;;;;17.84;92.60;99972.56;5065657;28;20045;-79
2022/08/16 03:38:31;;;;;;;15.43;13.73;;;;;;;17.82;92.79;99972.78;5069496;28;20541;-80
2022/08/16 03:41:00;;;;;;;20.48;14.32;;;;;;;17.72;93.07;99963.72;5061586;28;20049;-81
2022/08/16 03:43:27;;;;;;;17.65;14.65;;;;;;;17.67;93.23;99959.09;5058507;28;20048;-81
2022/08/16 03:45:56;;;;;;;16.13;14.05;;;;;;;17.66;93.39;99973.34;5054636;28;20072;-82
2022/08/16 03:48:24;;;;;;;17.83;14.23;;;;;;;17.69;93.33;99969.44;5039955;28;20057;-82
2022/08/16 03:50:51;;;;;;;16.00;14.25;;;;;;;17.67;93.07;99969.66;5047967;28;20136;-81
2022/08/16 03:53:18;;;;;;;16.73;15.02;;;;;;;17.64;93.61;99964.78;5060327;28;20448;-80
2022/08/16 03:55:44;;;;;;;20.23;14.20;;;;;;;17.71;93.16;99968.22;5062223;28;20954;-81
2022/08/16 03:58:12;;;;;;;17.40;14.27;;;;;;;17.64;93.22;99966.63;5058763;28;20053;-81
2022/08/16 04:00:39;;;;;;;16.90;14.25;;;;;;;17.64;93.34;99963.97;5060726;28;20049;-81
2022/08/16 04:03:07;;;;;;;17.30;14.88;;;;;;;17.59;93.64;99970.72;5059067;28;20068;-80
2022/08/16 04:05:35;;;;;;;19.17;14.57;;;;;;;17.59;93.81;99973.38;5056706;28;20049;-81
2022/08/16 04:08:02;;;;;;;17.02;14.40;;;;;;;17.58;93.90;99969.09;5063370;28;20059;-80
2022/08/16 04:10:29;;;;;;;18.40;14.68;;;;;;;17.55;93.95;99971.38;5055257;28;20080;-81
2022/08/16 04:12:57;;;;;;;17.60;14.60;;;;;;;17.55;94.15;99961.59;5052565;28;20040;-81
2022/08/16 04:15:28;;;;;;;18.30;14.38;;;;;;;17.56;93.90;99970.34;5053749;28;20091;-81
2022/08/16 04:17:55;;;;;;;17.70;14.85;;;;;;;17.57;94.03;99975.41;5039396;28;20504;-80
2022/08/16 04:20:22;;;;;;;18.40;15.25;;;;;;;17.56;93.82;99978.28;5038546;28;20060;-81
2022/08/16 04:22:48;;;;;;;17.27;14.60;;;;;;;17.51;94.24;99975.47;5046182;28;20040;-82
2022/08/16 04:25:15;;;;;;;16.95;14.65;;;;;;;17.50;94.16;99974.66;5059839;28;20143;-79
2022/08/16 04:27:42;;;;;;;19.48;14.60;;;;;;;17.54;94.00;99990.91;5058960;28;20102;-79
2022/08/16 04:30:12;;;;;;;20.42;15.10;;;;;;;17.54;93.49;99985.63;5058191;28;20084;-78
2022/08/16 04:32:41;;;;;;;16.45;14.32;;;;;;;17.50;94.06;99987.09;5070206;28;20052;-78
2022/08/16 04:35:09;;;;;;;16.05;14.35;;;;;;;17.47;93.76;99985.72;5062407;28;20106;-79
2022/08/16 04:37:37;;;;;;;18.42;14.85;;;;;;;17.44;93.83;99996.72;5059406;28;20049;-81
2022/08/16 04:40:05;;;;;;;18.63;14.85;;;;;;;17.48;94.02;99997.91;5059180;28;20053;-80
2022/08/16 04:42:32;;;;;;;18.83;15.18;;;;;;;17.45;94.18;100003.63;5055170;28;20055;-80
2022/08/16 04:44:59;;;;;;;16.42;14.75;;;;;;;17.47;94.07;100001.56;5071579;28;20472;-80
2022/08/16 04:47:30;;;;;;;21.42;14.15;;;;;;;17.53;93.81;99995.41;5060706;28;20519;-81
2022/08/16 04:49:59;;;;;;;15.68;13.88;;;;;;;17.64;93.56;99993.88;5067785;28;20048;-81
2022/08/16 04:52:25;;;;;;;16.92;13.23;;;;;;;17.73;93.22;99999.75;5072219;28;20049;-78
2022/08/16 04:54:52;;;;;;;18.33;13.05;;;;;;;17.84;92.82;100002.50;5058933;28;20076;-80
2022/08/16 04:57:19;;;;;;;19.40;13.07;;;;;;;17.90;92.52;100006.09;5059355;28;20064;-80
2022/08/16 04:59:45;;;;;;;17.85;13.23;;;;;;;17.95;92.47;100003.63;5059728;28;20080;-82
2022/08/16 05:02:12;;;;;;;13.50;12.10;;;;;;;18.07;91.62;100017.72;5070491;28;20079;-80
2022/08/16 05:04:38;;;;;;;16.77;13.13;;;;;;;18.10;91.46;100027.06;5058611;28;20048;-80
2022/08/16 05:07:07;;;;;;;17.20;12.38;;;;;;;18.17;91.07;100031.25;5058567;28;20135;-81
2022/08/16 05:09:33;;;;;;;17.40;12.00;;;;;;;18.22;90.87;100031.41;5062018;28;20071;-81
2022/08/16 05:12:00;;;;;;;17.65;11.73;;;;;;;18.30;90.62;100040.09;5063095;28;20051;-80
2022/08/16 05:14:28;;;;;;;15.05;11.00;;;;;;;18.34;90.10;100038.63;5082119;28;20601;-82
2022/08/16 05:16:55;;;;;;;16.42;11.48;;;;;;;18.40;89.63;100045.69;5069331;28;20056;-82
2022/08/16 05:19:24;;;;;;;18.85;11.48;;;;;;;18.49;89.62;100044.34;5060155;28;20102;-79
2022/08/16 05:21:50;;;;;;;14.35;10.90;;;;;;;18.54;89.33;100050.59;5064009;28;20045;-79
2022/08/16 05:24:18;;;;;;;18.23;11.35;;;;;;;18.62;88.48;100048.72;5062320;28;20419;-80
2022/08/16 05:26:45;;;;;;;18.15;11.45;;;;;;;18.69;88.52;100044.16;5059225;28;20112;-78
2022/08/16 05:29:12;;;;;;;13.77;10.98;;;;;;;18.87;87.47;100050.25;5063337;28;20495;-80
2022/08/16 05:31:38;;;;;;;14.93;10.60;;;;;;;19.04;87.26;100052.25;5064493;28;20056;-80
2022/08/16 05:34:05;;;;;;;16.88;11.20;;;;;;;19.11;86.61;100050.31;5060564;28;20166;-79
2022/08/16 05:36:33;;;;;;;18.33;10.25;;;;;;;19.77;84.59;100049.31;5064295;28;20085;-80
2022/08/16 05:39:00;;;;;;;14.00;9.60;;;;;;;20.61;80.64;100050.63;5065712;28;20052;-80
2022/08/16 05:41:28;;;;;;;17.08;10.02;;;;;;;21.34;78.22;100039.22;5061973;28;20045;-79
2022/08/16 05:43:55;;;;;;;15.63;8.98;;;;;;;22.10;75.01;100036.94;5060459;28;20052;-82
2022/08/16 05:46:21;;;;;;;13.52;9.63;;;;;;;21.68;74.93;100039.25;5059871;28;20489;-80
2022/08/16 05:48:48;;;;;;;16.73;9.15;;;;;;;21.68;75.77;100036.56;5069137;28;20147;-82
2022/08/16 05:51:15;;;;;;;14.43;8.82;;;;;;;22.33;73.56;100035.91;5078232;28;20101;-81
2022/08/16 05:53:41;;;;;;;11.75;8.32;;;;;;;23.13;70.83;100041.38;5076977;28;20518;-81
2022/08/16 05:56:08;;;;;;;9.30;8.07;;;;;;;23.55;68.91;100037.19;5078093;28;20083;-83
2022/08/16 05:58:36;;;;;;;12.52;7.95;;;;;;;24.29;67.22;100042.47;5077594;28;20052;-80
2022/08/16 06:01:04;;;;;;;16.83;8.38;;;;;;;24.22;67.04;100047.22;5070680;28;20072;-79
2022/08/16 06:03:31;;;;;;;13.15;8.32;;;;;;;24.65;66.01;100038.88;5079374;28;20110;-82
2022/08/16 06:05:58;;;;;;;15.00;8.07;;;;;;;25.02;64.84;100045.97;5079582;28;20052;-81
2022/08/16 06:08:25;;;;;;;9.55;7.45;;;;;;;25.13;64.70;100047.56;5077967;28;20048;-82
2022/08/16 06:10:52;;;;;;;10.75;7.53;;;;;;;25.37;63.80;100048.66;5077682;28;20049;-82
2022/08/16 06:13:18;;;;;;;10.73;7.30;;;;;;;25.75;62.42;100055.38;5078609;28;20395;-82
2022/08/16 06:15:48;;;;;;;11.88;7.88;;;;;;;25.79;62.02;100045.72;5074040;28;20470;-81
2022/08/16 06:18:15;;;;;;;11.85;7.57;;;;;;;26.32;60.68;100054.19;5066867;28;20110;-82
2022/08/16 06:20:41;;;;;;;12.88;7.85;;;;;;;26.67;60.13;100055.91;5062308;28;20427;-81
2022/08/16 06:23:08;;;;;;;9.93;7.38;;;;;;;26.65;59.32;100052.69;5079291;28;20546;-80
2022/08/16 06:25:35;;;;;;;9.48;7.22;;;;;;;26.99;58.95;100050.13;5082583;28;20076;-81
2022/08/16 06:28:01;;;;;;;11.90;7.25;;;;;;;27.22;58.56;100054.00;5083507;28;20557;-83
2022/08/16 06:30:31;;;;;;;10.65;7.63;;;;;;;27.78;56.80;100064.31;5070553;28;20056;-81
2022/08/16 06:32:59;;;;;;;16.33;7.22;;;;;;;27.91;56.45;100054.75;5076273;28;20102;-82
2022/08/16 06:35:26;;;;;;;11.40;7.03;;;;;;;27.65;56.75;100059.59;5080201;28;20094;-82
2022/08/16 06:37:53;;;;;;;16.80;7.25;;;;;;;27.48;56.49;100059.97;5082076;28;20503;-80
2022/08/16 06:40:20;;;;;;;9.13;6.95;;;;;;;28.03;56.01;100068.63;5082276;28;20064;-82
2022/08/16 06:42:47;;;;;;;12.60;7.30;;;;;;;28.31;54.94;100067.00;5070510;28;20049;-80
2022/08/16 06:45:13;;;;;;;10.13;7.50;;;;;;;28.71;53.78;100077.25;5075537;28;20071;-82
2022/08/16 06:47:40;;;;;;;12.70;7.47;;;;;;;28.82;52.97;100069.09;5077878;28;20041;-83
2022/08/16 06:50:09;;;;;;;17.80;7.72;;;;;;;28.66;53.54;100068.44;5063064;28;20053;-82
2022/08/16 06:52:37;;;;;;;11.45;7.90;;;;;;;28.41;54.31;100061.47;5044345;28;20068;-81
2022/08/16 06:55:06;;;;;;;13.50;7.32;;;;;;;28.76;53.58;100067.50;5073102;28;20059;-81
2022/08/16 06:57:32;;;;;;;16.52;8.32;;;;;;;28.30;54.79;100065.41;5068308;28;20618;-81
2022/08/16 06:59:59;;;;;;;17.50;7.90;;;;;;;28.56;54.31;100063.19;5067398;28;20052;-82
2022/08/16 07:02:26;;;;;;;13.65;7.40;;;;;;;29.12;53.58;100059.75;5083004;28;20083;-81
2022/08/16 07:04:53;;;;;;;12.35;7.57;;;;;;;29.37;52.60;100070.91;5077420;28;20076;-82
2022/08/16 07:07:21;;;;;;;12.88;6.88;;;;;;;29.50;52.44;100071.28;5082832;28;20059;-82
2022/08/16 07:09:48;;;;;;;12.77;6.90;;;;;;;29.35;51.95;100080.38;5085335;28;20136;-82
2022/08/16 07:12:15;;;;;;;13.38;7.00;;;;;;;28.94;53.47;100077.50;5079723;28;20106;-82
2022/08/16 07:14:41;;;;;;;16.08;6.28;;;;;;;28.89;52.68;100077.56;5064336;28;20053;-82
2022/08/16 07:17:08;;;;;;;11.68;6.57;;;;;;;28.94;53.16;100077.50;5069071;28;20052;-80
2022/08/16 07:19:35;;;;;;;9.18;6.15;;;;;;;28.96;52.63;100078.81;5072528;28;20045;-80
2022/08/16 07:22:02;;;;;;;11.07;6.63;;;;;;;29.26;52.44;100085.66;5087236;28;20075;-81
2022/08/16 07:24:31;;;;;;;12.05;6.65;;;;;;;28.67;53.37;100081.63;5080241;28;20047;-81
2022/08/16 07:26:58;;;;;;;9.55;6.35;;;;;;;28.06;54.21;100076.13;5068440;28;20052;-80
2022/08/16 07:29:25;;;;;;;9.63;5.75;;;;;;;28.74;52.65;100075.88;5060609;28;20049;-82
2022/08/16 07:31:51;;;;;;;8.45;6.63;;;;;;;27.33;55.92;100068.97;5072199;28;20084;-81
2022/08/16 07:34:18;;;;;;;9.75;6.47;;;;;;;28.43;54.00;100075.44;5072227;28;20048;-81
2022/08/16 07:36:46;;;;;;;9.77;6.70;;;;;;;29.97;51.38;100084.47;5059607;28;20099;-84
2022/08/16 07:39:13;;;;;;;12.45;6.53;;;;;;;28.82;51.87;100079.84;5062074;28;20044;-79
2022/08/16 07:41:43;;;;;;;11.52;6.07;;;;;;;28.97;52.73;100085.00;5066739;28;20049;-80
2022/08/16 07:44:10;;;;;;;12.02;7.07;;;;;;;29.55;51.57;100084.69;5071809;28;20416;-81
2022/08/16 07:46:37;;;;;;;9.13;6.82;;;;;;;28.78;52.57;100086.88;5076342;28;20060;-80
2022/08/16 07:49:04;;;;;;;11.20;7.20;;;;;;;28.89;53.28;100085.66;5077193;28;20055;-83
2022/08/16 07:51:33;;;;;;;11.27;6.97;;;;;;;29.82;51.68;100095.53;5072239;28;20053;-82
2022/08/16 07:54:01;;;;;;;13.07;6.57;;;;;;;29.83;51.09;100085.53;5064778;28;20425;-81
2022/08/16 07:56:28;;;;;;;8.88;6.70;;;;;;;30.73;49.56;100092.19;5058937;28;20049;-82
2022/08/16 07:58:57;;;;;;;9.65;6.43;;;;;;;30.47;50.33;100090.03;5059070;28;20049;-82
2022/08/16 08:01:24;;;;;;;15.15;6.88;;;;;;;30.22;50.47;100087.84;5068678;28;20510;-81
2022/08/16 08:03:52;;;;;;;10.57;6.80;;;;;;;30.83;49.48;100094.69;5078424;28;20076;-82
2022/08/16 08:06:21;;;;;;;9.18;6.90;;;;;;;30.60;49.62;100085.75;5080949;28;20049;-81
2022/08/16 08:08:48;;;;;;;10.52;7.28;;;;;;;30.27;49.98;100095.81;5086669;28;20041;-82
2022/08/16 08:11:15;;;;;;;14.23;8.30;;;;;;;30.34;48.95;100096.22;5068690;28;20052;-82
2022/08/16 08:13:43;;;;;;;11.57;6.95;;;;;;;30.55;49.78;100093.91;5066424;28;20060;-82
2022/08/16 08:16:11;;;;;;;15.48;7.15;;;;;;;30.53;49.40;100093.41;5064140;28;20041;-82
2022/08/16 08:18:39;;;;;;;12.50;7.18;;;;;;;30.18;50.09;100098.44;5075961;28;20052;-81
2022/08/16 08:21:06;;;;;;;11.98;7.03;;;;;;;30.31;50.13;100107.59;5066328;28;20096;-82
2022/08/16 08:23:35;;;;;;;11.10;6.38;;;;;;;30.49;49.86;100106.72;5075981;28;20157;-81
2022/08/16 08:26:02;;;;;;;12.50;6.18;;;;;;;30.41;50.02;100112.81;5082516;28;20044;-80
2022/08/16 08:28:30;;;;;;;8.05;6.07;;;;;;;30.81;49.20;100115.81;5081994;28;20075;-80
2022/08/16 08:30:57;;;;;;;8.63;6.53;;;;;;;31.22;47.87;100111.13;5077349;28;20478;-81
2022/08/16 08:33:25;;;;;;;9.27;6.38;;;;;;;30.58;49.29;100110.34;5080929;28;20056;-80
2022/08/16 08:35:55;;;;;;;9.45;6.85;;;;;;;30.46;48.82;100109.22;5069238;28;20060;-82
2022/08/16 08:38:22;;;;;;;9.32;6.53;;;;;;;30.52;48.89;100118.81;5072296;28;20049;-82
2022/08/16 08:40:49;;;;;;;8.60;6.57;;;;;;;30.61;48.54;100119.75;5083079;28;20056;-82
2022/08/16 08:43:16;;;;;;;13.20;7.15;;;;;;;31.16;47.50;100123.16;5065714;28;20051;-82
2022/08/16 08:45:43;;;;;;;10.05;6.70;;;;;;;30.23;49.12;100117.22;5063379;28;20039;-82
2022/08/16 08:48:10;;;;;;;8.02;6.63;;;;;;;30.41;49.74;100120.91;5063560;28;20133;-80
2022/08/16 08:50:38;;;;;;;8.90;6.82;;;;;;;30.36;49.47;100119.09;5068322;28;20068;-82
2022/08/16 08:53:05;;;;;;;7.88;6.57;;;;;;;30.00;50.55;100118.19;5079790;28;20056;-83
2022/08/16 08:55:32;;;;;;;8.57;6.53;;;;;;;30.54;50.53;100117.41;5080420;28;20079;-83
2022/08/16 08:57:59;;;;;;;10.27;6.53;;;;;;;30.81;50.01;100132.81;5080865;28;20052;-83
2022/08/16 09:00:27;;;;;;;11.73;6.50;;;;;;;30.98;48.83;100126.78;5078575;28;20075;-82
2022/08/16 09:02:54;;;;;;;7.93;6.80;;;;;;;30.65;48.65;100126.94;5061754;28;20094;-82
2022/08/16 09:05:24;;;;;;;12.35;7.43;;;;;;;30.97;48.30;100130.59;5064271;28;20146;-80
2022/08/16 09:07:54;;;;;;;10.07;7.68;;;;;;;30.40;49.40;100127.41;5079916;28;20059;-81
2022/08/16 09:10:22;;;;;;;9.52;7.30;;;;;;;30.01;50.10;100128.69;5077984;28;20131;-82
2022/08/16 09:12:49;;;;;;;9.07;7.18;;;;;;;29.92;49.95;100116.13;5088016;22;20064;-80
2022/08/16 09:15:19;;;;;;;9.63;6.82;;;;;;;30.27;50.20;100129.00;5067366;28;20083;-79
2022/08/16 09:17:46;;;;;;;8.10;6.40;;;;;;;30.15;50.95;100130.59;5074533;28;20057;-80
2022/08/16 09:20:14;;;;;;;12.43;6.90;;;;;;;30.76;48.98;100140.22;5075385;28;20131;-80
2022/08/16 09:22:42;;;;;;;7.40;6.70;;;;;;;30.71;48.43;100146.53;5074948;28;20070;-80
2022/08/16 09:25:12;;;;;;;9.48;7.68;;;;;;;30.75;48.58;100149.41;5059700;28;20539;-80
2022/08/16 09:27:42;;;;;;;11.20;7.18;;;;;;;31.13;48.14;100142.69;5056257;28;20099;-83
2022/08/16 09:30:10;;;;;;;10.38;8.23;;;;;;;30.97;48.11;100141.41;5072394;28;20123;-83
2022/08/16 09:32:37;;;;;;;9.73;7.53;;;;;;;30.71;49.31;100143.03;5078353;28;20056;-80
2022/08/16 09:35:05;;;;;;;8.30;7.25;;;;;;;30.60;48.37;100145.94;5077262;28;20049;-82
2022/08/16 09:37:35;;;;;;;9.65;7.50;;;;;;;30.28;49.81;100143.28;5077227;28;20044;-81
2022/08/16 09:40:03;;;;;;;28.55;8.40;;;;;;;30.88;49.60;100145.91;5077733;28;20047;-80
2022/08/16 09:42:31;;;;;;;13.35;7.50;;;;;;;30.85;48.32;100141.09;5077025;28;20294;-81
2022/08/16 09:45:00;;;;;;;11.88;7.07;;;;;;;30.48;48.93;100140.22;5079057;28;20044;-81
2022/08/16 09:47:27;;;;;;;14.35;8.98;;;;;;;28.98;50.99;100140.47;5080172;28;20104;-81
2022/08/16 09:49:54;;;;;;;9.43;8.40;;;;;;;29.38;50.48;100131.81;5077504;28;20491;-82
2022/08/16 09:52:21;;;;;;;9.80;7.90;;;;;;;29.02;51.61;100136.13;5079738;28;20087;-81
2022/08/16 09:54:47;;;;;;;10.77;8.25;;;;;;;29.10;51.92;100122.00;5078907;28;20090;-79
2022/08/16 09:57:19;;;;;;;14.50;9.13;;;;;;;29.05;51.35;100138.22;5080889;28;20053;-81
2022/08/16 09:59:47;;;;;;;11.90;8.40;;;;;;;29.12;51.61;100117.13;5079432;28;20075;-81
2022/08/16 10:02:15;;;;;;;13.20;8.60;;;;;;;28.99;51.86;100110.56;5061982;28;20099;-81
2022/08/16 10:04:42;;;;;;;9.38;8.38;;;;;;;29.45;51.45;100125.28;5057697;28;20059;-81
2022/08/16 10:07:09;;;;;;;10.63;8.68;;;;;;;28.86;52.68;100113.16;5058338;28;20057;-83
2022/08/16 10:09:39;;;;;;;13.52;8.40;;;;;;;29.01;51.92;100112.97;5061166;28;20593;-83
2022/08/16 10:17:33;;;;;;;12.32;8.27;;;;;;;28.95;51.93;100108.72;5060470;28;20057;-80
2022/08/16 10:20:09;;;;;;;11.13;7.63;;;;;;;29.59;52.16;100115.34;5062231;28;20053;-83
2022/08/16 10:22:37;;;;;;;12.40;8.23;;;;;;;29.83;50.82;100113.31;5058702;28;20072;-83
2022/08/16 10:25:04;;;;;;;10.80;7.93;;;;;;;29.90;50.92;100119.13;5058920;28;20106;-81
2022/08/16 10:27:35;;;;;;;12.48;8.02;;;;;;;29.63;49.58;100125.25;5061550;28;20075;-84
2022/08/16 10:30:08;;;;;;;13.20;7.68;;;;;;;29.25;50.13;100113.72;5060736;28;20045;-85
2022/08/16 10:32:44;;;;;;;12.88;8.23;;;;;;;28.69;50.67;100111.75;5061830;28;20084;-83
2022/08/16 10:35:11;;;;;;;13.70;7.63;;;;;;;29.28;50.55;100112.31;5061420;28;20101;-84
2022/08/16 10:37:38;;;;;;;10.15;7.45;;;;;;;29.76;48.93;100118.31;5059743;28;20049;-83
2022/08/16 10:40:13;;;;;;;16.73;7.43;;;;;;;29.90;49.28;100111.03;5058526;28;20491;-83
2022/08/16 10:42:42;;;;;;;10.73;8.13;;;;;;;30.13;49.30;100113.91;5056596;28;20090;-83
2022/08/16 10:45:13;;;;;;;12.82;7.38;;;;;;;30.25;48.37;100114.19;5057283;28;20068;-81
2022/08/16 10:47:41;;;;;;;8.98;7.30;;;;;;;30.47;47.98;100122.41;5059982;28;20045;-80
2022/08/16 10:50:09;;;;;;;9.55;7.07;;;;;;;30.19;47.89;100128.91;5058552;28;20056;-83
2022/08/16 10:52:36;;;;;;;11.52;7.30;;;;;;;30.03;47.96;100106.81;5060322;28;20139;-84
2022/08/16 10:55:04;;;;;;;8.80;7.20;;;;;;;29.86;47.69;100112.72;5059043;28;20044;-83
2022/08/16 10:57:30;;;;;;;11.95;7.05;;;;;;;30.07;47.50;100115.09;5058972;28;20108;-82
2022/08/16 10:59:57;;;;;;;9.70;7.68;;;;;;;30.01;47.73;100104.41;5053826;28;20057;-80
2022/08/16 11:02:26;;;;;;;11.35;7.22;;;;;;;30.04;47.66;100106.50;5052170;28;20049;-80
2022/08/16 11:04:54;;;;;;;13.57;7.13;;;;;;;29.87;47.98;100108.13;5054431;28;20074;-80
2022/08/16 11:07:21;;;;;;;9.93;6.97;;;;;;;29.68;47.86;100113.59;5056403;28;20056;-81
2022/08/16 11:09:48;;;;;;;10.50;7.00;;;;;;;30.05;48.01;100115.41;5059024;28;20111;-81
2022/08/16 11:12:15;;;;;;;8.70;7.40;;;;;;;29.75;47.32;100108.63;5059390;28;20049;-81
2022/08/16 11:14:42;;;;;;;11.52;7.57;;;;;;;29.31;48.18;100098.22;5058346;28;20721;-79
2022/08/16 11:17:09;;;;;;;12.18;7.30;;;;;;;29.35;48.46;100112.72;5060579;28;20055;-80
2022/08/16 11:19:40;;;;;;;12.27;8.05;;;;;;;29.44;48.30;100120.97;5060229;28;20136;-80
2022/08/16 11:22:07;;;;;;;11.07;7.97;;;;;;;30.10;48.21;100117.19;5057110;28;20091;-80
2022/08/16 11:24:38;;;;;;;9.00;7.68;;;;;;;30.00;47.06;100124.38;5061448;28;20452;-80
2022/08/16 11:27:07;;;;;;;9.38;6.93;;;;;;;30.65;45.90;100118.84;5057745;28;20041;-79